createdAt,value
2019-03-27T00:00:50.179Z,102169.74
2019-03-27T00:03:20.626Z,102173.12
2019-03-27T00:05:51.465Z,102168.45
2019-03-27T00:08:22.202Z,102179.78
2019-03-27T00:10:52.727Z,102179.59
2019-03-27T00:26:37.226Z,102193.89
2019-03-27T00:29:07.905Z,102207.00
2019-03-27T00:31:38.244Z,102198.25
2019-03-27T00:34:08.727Z,102205.64
2019-03-27T00:36:40.362Z,102197.48
2019-03-27T00:39:11.329Z,102208.96
2019-03-27T00:41:41.705Z,102207.55
2019-03-27T00:44:12.334Z,102205.57
2019-03-27T00:46:42.965Z,102214.25
2019-03-27T00:49:13.342Z,102213.02
2019-03-27T00:51:44.310Z,102218.43
2019-03-27T00:54:14.863Z,102226.61
2019-03-27T00:56:45.475Z,102220.15
2019-03-27T00:59:19.105Z,102213.09
2019-03-27T01:01:48.271Z,102214.77
2019-03-27T01:04:19.064Z,102208.31
2019-03-27T01:06:51.134Z,102205.84
2019-03-27T01:09:22.065Z,102209.20
2019-03-27T01:11:52.682Z,102205.73
2019-03-27T01:14:23.173Z,102219.04
2019-03-27T01:16:53.805Z,102223.73
2019-03-27T01:19:24.290Z,102228.09
2019-03-27T01:21:55.259Z,102234.69
2019-03-27T01:24:25.657Z,102238.83
2019-03-27T01:26:56.302Z,102251.35
2019-03-27T01:29:27.103Z,102242.79
2019-03-27T01:31:57.700Z,102241.41
2019-03-27T01:34:28.275Z,102245.59
2019-03-27T01:36:58.604Z,102245.38
2019-03-27T01:39:29.058Z,102255.41
2019-03-27T01:41:59.819Z,102252.13
2019-03-27T01:44:30.923Z,102252.05
2019-03-27T01:47:01.302Z,102253.25
2019-03-27T01:49:31.833Z,102256.94
2019-03-27T01:52:02.208Z,102255.84
2019-03-27T01:54:32.848Z,102253.63
2019-03-27T01:57:04.448Z,102251.27
2019-03-27T01:59:34.918Z,102259.39
2019-03-27T02:02:05.274Z,102256.61
2019-03-27T02:04:35.832Z,102254.62
2019-03-27T02:07:06.796Z,102252.25
2019-03-27T02:09:39.141Z,102255.12
2019-03-27T02:12:09.784Z,102251.46
2019-03-27T02:14:40.586Z,102251.67
2019-03-27T02:17:11.105Z,102252.66
2019-03-27T02:19:41.462Z,102253.86
2019-03-27T02:22:12.261Z,102247.30
2019-03-27T02:24:42.847Z,102248.17
2019-03-27T02:27:13.485Z,102246.39
2019-03-27T02:29:43.851Z,102247.98
2019-03-27T02:32:14.260Z,102242.92
2019-03-27T02:34:44.637Z,102241.72
2019-03-27T02:37:15.797Z,102237.13
2019-03-27T02:39:46.306Z,102242.61
2019-03-27T02:42:16.660Z,102242.81
2019-03-27T02:44:47.369Z,102252.53
2019-03-27T02:47:18.006Z,102256.32
2019-03-27T02:49:48.344Z,102264.16
2019-03-27T02:52:18.752Z,102265.95
2019-03-27T02:54:49.298Z,102261.35
2019-03-27T02:57:19.744Z,102263.16
2019-03-27T02:59:50.262Z,102260.98
2019-03-27T03:02:20.874Z,102260.28
2019-03-27T03:04:51.417Z,102258.40
2019-03-27T03:07:22.091Z,102260.58
2019-03-27T03:09:52.710Z,102263.38
2019-03-27T03:12:23.235Z,102265.35
2019-03-27T03:14:53.652Z,102265.19
2019-03-27T03:17:24.028Z,102260.69
2019-03-27T03:19:54.774Z,102256.42
2019-03-27T03:22:25.193Z,102260.08
2019-03-27T03:24:55.814Z,102259.42
2019-03-27T03:27:26.344Z,102266.87
2019-03-27T03:29:57.045Z,102260.32
2019-03-27T03:32:27.538Z,102256.79
2019-03-27T03:34:58.006Z,102261.25
2019-03-27T03:37:28.467Z,102261.52
2019-03-27T03:39:58.866Z,102271.07
2019-03-27T03:42:29.933Z,102274.30
2019-03-27T03:45:00.944Z,102285.33
2019-03-27T03:47:32.488Z,102296.28
2019-03-27T03:50:03.303Z,102300.80
2019-03-27T03:52:33.858Z,102293.12
2019-03-27T03:55:04.661Z,102301.14
2019-03-27T03:57:36.650Z,102295.98
2019-03-27T04:00:07.800Z,102299.80
2019-03-27T04:02:39.049Z,102293.16
2019-03-27T04:05:11.229Z,102298.09
2019-03-27T04:07:41.796Z,102301.00
2019-03-27T04:10:12.429Z,102315.85
2019-03-27T04:12:42.802Z,102308.98
2019-03-27T04:15:13.400Z,102312.55
2019-03-27T04:17:44.018Z,102316.58
2019-03-27T04:20:14.554Z,102315.14
2019-03-27T04:22:45.267Z,102310.27
2019-03-27T04:25:15.727Z,102310.94
2019-03-27T04:27:46.261Z,102312.66
2019-03-27T04:30:16.961Z,102310.41
2019-03-27T04:32:47.391Z,102316.52
2019-03-27T04:35:18.122Z,102315.66
2019-03-27T04:37:48.739Z,102323.59
2019-03-27T04:40:19.697Z,102322.92
2019-03-27T04:42:50.200Z,102325.79
2019-03-27T04:45:20.773Z,102326.02
2019-03-27T04:47:51.249Z,102328.61
2019-03-27T04:50:22.037Z,102331.09
2019-03-27T04:52:52.494Z,102324.92
2019-03-27T04:55:22.928Z,102331.37
2019-03-27T04:57:53.628Z,102329.65
2019-03-27T05:00:24.098Z,102340.07
2019-03-27T05:02:54.441Z,102348.84
2019-03-27T05:05:24.791Z,102358.59
2019-03-27T05:07:55.284Z,102345.89
2019-03-27T05:10:25.726Z,102347.30
2019-03-27T05:12:56.239Z,102347.02
2019-03-27T05:15:26.682Z,102349.83
2019-03-27T05:17:57.303Z,102340.50
2019-03-27T05:20:28.834Z,102339.40
2019-03-27T05:22:59.308Z,102344.24
2019-03-27T05:25:30.358Z,102345.27
2019-03-27T05:28:00.728Z,102348.72
2019-03-27T05:30:31.274Z,102356.34
2019-03-27T05:33:02.221Z,102356.16
2019-03-27T05:35:32.842Z,102351.77
2019-03-27T05:39:48.213Z,102339.11
2019-03-27T05:42:21.218Z,102342.72
2019-03-27T05:44:53.429Z,102350.07
2019-03-27T05:47:25.538Z,102357.72
2019-03-27T05:49:57.745Z,102358.42
2019-03-27T05:52:29.685Z,102353.13
2019-03-27T05:55:01.603Z,102349.52
2019-03-27T05:57:33.837Z,102347.41
2019-03-27T06:00:06.298Z,102355.17
2019-03-27T06:02:38.107Z,102359.80
2019-03-27T06:05:10.241Z,102356.45
2019-03-27T06:07:42.348Z,102359.34
2019-03-27T06:10:16.371Z,102362.83
2019-03-27T06:12:48.008Z,102363.67
2019-03-27T06:15:20.529Z,102358.86
2019-03-27T06:17:52.331Z,102350.75
2019-03-27T06:20:24.290Z,102352.00
2019-03-27T06:22:57.631Z,102356.84
2019-03-27T06:25:29.569Z,102352.28
2019-03-27T06:28:02.182Z,102354.41
2019-03-27T06:30:34.072Z,102359.03
2019-03-27T06:33:07.622Z,102343.80
2019-03-27T06:35:39.982Z,102349.58
2019-03-27T06:38:11.946Z,102338.78
2019-03-27T06:40:44.031Z,102341.20
2019-03-27T06:43:16.110Z,102341.51
2019-03-27T06:45:48.208Z,102341.53
2019-03-27T06:48:26.133Z,102349.14
2019-03-27T06:50:53.780Z,102350.41
2019-03-27T06:53:25.688Z,102349.53
2019-03-27T06:55:57.607Z,102340.58
2019-03-27T06:58:29.566Z,102331.66
2019-03-27T07:01:01.487Z,102323.36
2019-03-27T07:03:33.666Z,102318.14
2019-03-27T07:06:05.782Z,102314.75
2019-03-27T07:08:37.935Z,102324.09
2019-03-27T07:11:10.018Z,102321.43
2019-03-27T07:13:42.220Z,102325.00
2019-03-27T07:16:14.420Z,102329.21
2019-03-27T07:18:46.916Z,102331.03
2019-03-27T07:21:18.989Z,102332.63
2019-03-27T07:23:50.870Z,102337.77
2019-03-27T07:26:23.219Z,102333.20
2019-03-27T07:28:55.187Z,102339.77
2019-03-27T07:31:28.380Z,102347.21
2019-03-27T07:34:00.351Z,102345.52
2019-03-27T07:36:32.298Z,102356.61
2019-03-27T07:39:11.153Z,102358.70
2019-03-27T07:41:39.391Z,102362.25
2019-03-27T07:44:11.442Z,102364.16
2019-03-27T07:46:43.721Z,102361.86
2019-03-27T07:49:17.206Z,102360.72
2019-03-27T07:51:49.213Z,102366.64
2019-03-27T07:54:21.347Z,102364.27
2019-03-27T07:56:53.487Z,102368.87
2019-03-27T07:59:25.334Z,102362.01
2019-03-27T08:04:27.534Z,102349.14
2019-03-27T08:06:59.963Z,102350.64
2019-03-27T08:09:32.044Z,102346.48
2019-03-27T08:12:04.587Z,102340.55
2019-03-27T08:14:36.868Z,102345.91
2019-03-27T08:17:09.305Z,102359.88
2019-03-27T08:19:41.345Z,102338.06
2019-03-27T08:22:13.387Z,102337.59
2019-03-27T08:24:45.491Z,102335.53
2019-03-27T08:27:17.503Z,102335.89
2019-03-27T08:29:49.764Z,102346.25
2019-03-27T08:32:21.899Z,102337.87
2019-03-27T08:34:54.213Z,102340.29
2019-03-27T08:37:26.056Z,102563.92
2019-03-27T08:39:58.181Z,102345.72
2019-03-27T08:42:30.222Z,102339.50
2019-03-27T08:45:03.815Z,102340.74
2019-03-27T08:47:36.276Z,102329.03
2019-03-27T08:50:09.939Z,102329.03
2019-03-27T08:52:42.920Z,102355.47
2019-03-27T08:55:15.381Z,102348.27
2019-03-27T08:57:47.583Z,102347.25
2019-03-27T09:00:24.292Z,102328.40
2019-03-27T09:02:56.245Z,102342.46
2019-03-27T09:05:28.126Z,102348.60
2019-03-27T09:08:00.442Z,102351.09
2019-03-27T09:10:32.526Z,102352.26
2019-03-27T09:13:04.924Z,102350.27
2019-03-27T09:15:37.200Z,102354.53
2019-03-27T09:18:09.301Z,102346.46
2019-03-27T09:20:41.294Z,102356.95
2019-03-27T09:23:14.253Z,102348.84
2019-03-27T09:25:46.224Z,102355.52
2019-03-27T09:28:18.148Z,102355.07
2019-03-27T09:30:50.137Z,102350.90
2019-03-27T09:33:22.136Z,102343.06
2019-03-27T09:35:54.259Z,102343.20
2019-03-27T09:38:26.298Z,102345.15
2019-03-27T09:40:58.353Z,102349.92
2019-03-27T09:43:30.474Z,102354.57
2019-03-27T09:46:02.367Z,102348.20
2019-03-27T09:48:34.316Z,102353.48
2019-03-27T09:51:06.258Z,102349.75
2019-03-27T09:53:38.486Z,102334.42
2019-03-27T09:56:19.051Z,102353.71
2019-03-27T09:58:44.182Z,102348.71
2019-03-27T10:01:16.003Z,102340.34
2019-03-27T10:03:48.059Z,102346.06
2019-03-27T10:06:20.130Z,102343.76
2019-03-27T10:08:52.261Z,102343.32
2019-03-27T10:11:24.178Z,102348.61
2019-03-27T10:13:56.345Z,102340.97
2019-03-27T10:16:28.424Z,102328.39
2019-03-27T10:19:00.404Z,102335.23
2019-03-27T10:21:32.455Z,102326.34
2019-03-27T10:24:04.672Z,102317.98
2019-03-27T10:26:36.627Z,102317.98
2019-03-27T10:29:08.498Z,102329.93
2019-03-27T10:31:40.407Z,102326.94
2019-03-27T10:34:12.538Z,102328.23
2019-03-27T10:36:45.318Z,102324.60
2019-03-27T10:39:17.422Z,102325.83
2019-03-27T10:41:49.551Z,102330.67
2019-03-27T10:44:21.566Z,102321.80
2019-03-27T10:46:53.749Z,102317.21
2019-03-27T10:49:25.722Z,102321.50
2019-03-27T10:51:57.825Z,102304.44
2019-03-27T10:54:29.952Z,102317.53
2019-03-27T10:57:02.244Z,102307.52
2019-03-27T10:59:34.661Z,102323.22
2019-03-27T11:02:07.714Z,102320.22
2019-03-27T11:04:39.680Z,102314.14
2019-03-27T11:07:11.642Z,102309.72
2019-03-27T11:09:43.694Z,102311.02
2019-03-27T11:12:15.890Z,102313.26
2019-03-27T11:14:47.916Z,102315.91
2019-03-27T11:17:19.940Z,102307.50
2019-03-27T11:19:51.791Z,102310.16
2019-03-27T11:22:23.636Z,102313.53
2019-03-27T11:24:55.635Z,102303.52
2019-03-27T11:27:27.593Z,102306.20
2019-03-27T11:29:59.889Z,102303.41
2019-03-27T11:32:31.952Z,102302.99
2019-03-27T11:35:04.561Z,102302.62
2019-03-27T11:37:37.809Z,102307.05
2019-03-27T11:40:10.391Z,102316.12
2019-03-27T11:42:42.475Z,102299.98
2019-03-27T11:45:14.843Z,102310.58
2019-03-27T11:47:46.882Z,102303.77
2019-03-27T11:50:19.137Z,102297.33
2019-03-27T11:52:51.152Z,102298.23
2019-03-27T11:55:23.215Z,102290.27
2019-03-27T11:57:55.196Z,102288.38
2019-03-27T12:00:27.147Z,102284.86
2019-03-27T12:02:59.360Z,102289.81
2019-03-27T12:05:31.744Z,102280.52
2019-03-27T12:08:04.976Z,102274.80
2019-03-27T12:10:36.805Z,102283.59
2019-03-27T12:13:09.706Z,102288.03
2019-03-27T12:15:43.915Z,102289.02
2019-03-27T12:18:17.125Z,102276.84
2019-03-27T12:20:58.849Z,102266.39
2019-03-27T12:23:23.262Z,102273.77
2019-03-27T12:25:55.592Z,102270.19
2019-03-27T12:28:28.613Z,102276.05
2019-03-27T12:31:01.138Z,102274.66
2019-03-27T12:33:33.265Z,102274.27
2019-03-27T12:36:05.356Z,102273.02
2019-03-27T12:38:37.402Z,102267.27
2019-03-27T12:41:09.506Z,102272.58
2019-03-27T12:43:41.635Z,102262.64
2019-03-27T12:46:13.665Z,102272.56
2019-03-27T12:48:45.905Z,102270.98
2019-03-27T12:51:18.152Z,102270.52
2019-03-27T12:53:50.124Z,102272.41
2019-03-27T12:56:22.148Z,102271.42
2019-03-27T12:58:54.347Z,102268.67
2019-03-27T13:01:26.538Z,102277.73
2019-03-27T13:03:58.663Z,102277.73
2019-03-27T13:06:30.902Z,102280.70
2019-03-27T13:09:03.574Z,102270.19
2019-03-27T13:11:36.863Z,102281.96
2019-03-27T13:14:09.323Z,102281.52
2019-03-27T13:16:42.707Z,102281.72
2019-03-27T13:19:14.903Z,102281.14
2019-03-27T13:21:47.060Z,102279.89
2019-03-27T13:24:19.009Z,102279.91
2019-03-27T13:26:51.213Z,102278.56
2019-03-27T13:29:23.402Z,102278.49
2019-03-27T13:31:55.613Z,102287.23
2019-03-27T13:34:27.636Z,102278.07
2019-03-27T13:36:59.950Z,102278.09
2019-03-27T13:39:31.821Z,102287.70
2019-03-27T13:42:03.997Z,102282.60
2019-03-27T13:44:37.483Z,102283.45
2019-03-27T13:47:10.176Z,102285.41
2019-03-27T13:49:42.567Z,102277.09
2019-03-27T13:52:14.513Z,102278.23
2019-03-27T13:54:46.609Z,102274.55
2019-03-27T13:57:18.614Z,102270.56
2019-03-27T13:59:51.065Z,102267.77
2019-03-27T14:02:22.942Z,102268.26
2019-03-27T14:04:54.998Z,102277.48
2019-03-27T14:07:27.238Z,102275.09
2019-03-27T14:09:59.323Z,102275.80
2019-03-27T14:12:31.442Z,102280.27
2019-03-27T14:15:03.648Z,102273.50
2019-03-27T14:17:35.495Z,102292.72
2019-03-27T14:20:08.546Z,102280.78
2019-03-27T14:22:40.699Z,102281.00
2019-03-27T14:25:13.142Z,102285.84
2019-03-27T14:27:46.098Z,102284.33
2019-03-27T14:30:38.893Z,102280.58
2019-03-27T14:33:11.135Z,102296.53
2019-03-27T14:35:43.145Z,102290.75
2019-03-27T14:38:15.096Z,102281.12
2019-03-27T14:40:47.105Z,102286.67
2019-03-27T14:43:19.161Z,102287.67
2019-03-27T14:45:51.828Z,102283.52
2019-03-27T14:48:23.861Z,102296.22
2019-03-27T14:50:57.148Z,102289.59
2019-03-27T14:53:29.025Z,102293.70
2019-03-27T14:56:00.857Z,102281.14
2019-03-27T14:58:33.450Z,102286.81
2019-03-27T15:01:05.969Z,102288.59
2019-03-27T15:03:39.222Z,102297.47
2019-03-27T15:06:12.117Z,102297.84
2019-03-27T15:08:44.343Z,102289.05
2019-03-27T15:11:16.377Z,102290.37
2019-03-27T15:13:48.811Z,102286.07
2019-03-27T15:16:20.865Z,102277.25
2019-03-27T15:18:53.032Z,102285.48
2019-03-27T15:21:25.222Z,102284.45
2019-03-27T15:23:57.321Z,102281.30
2019-03-27T15:26:30.823Z,102281.53
2019-03-27T15:29:02.994Z,102272.30
2019-03-27T15:31:34.979Z,102276.38
2019-03-27T15:34:06.979Z,102275.09
2019-03-27T15:36:39.100Z,102268.58
2019-03-27T15:39:12.237Z,102273.15
2019-03-27T15:41:44.634Z,102265.84
2019-03-27T15:44:17.650Z,102252.89
2019-03-27T15:46:49.551Z,102262.38
2019-03-27T15:49:21.463Z,102265.31
2019-03-27T15:51:53.633Z,102264.59
2019-03-27T15:54:25.974Z,102256.45
2019-03-27T15:56:58.316Z,102256.53
2019-03-27T15:59:30.384Z,102254.20
2019-03-27T16:02:02.823Z,102257.89
2019-03-27T16:04:35.051Z,102258.42
2019-03-27T16:07:07.526Z,102252.22
2019-03-27T16:09:39.944Z,102253.45
2019-03-27T16:12:12.229Z,102256.72
2019-03-27T16:14:44.452Z,102256.69
2019-03-27T16:17:16.579Z,102244.23
2019-03-27T16:19:48.814Z,102247.25
2019-03-27T16:22:21.148Z,102252.56
2019-03-27T16:24:53.035Z,102245.14
2019-03-27T16:27:25.476Z,102245.44
2019-03-27T16:29:58.628Z,102252.95
2019-03-27T16:32:30.506Z,102251.38
2019-03-27T16:35:02.655Z,102248.25
2019-03-27T16:37:34.731Z,102248.09
2019-03-27T16:40:07.515Z,102247.01
2019-03-27T16:42:41.347Z,102251.18
2019-03-27T16:45:13.491Z,102250.00
2019-03-27T16:47:45.470Z,102257.56
2019-03-27T16:50:18.198Z,102249.09
2019-03-27T16:53:02.994Z,102248.25
2019-03-27T16:55:24.507Z,102245.92
2019-03-27T16:57:56.854Z,102250.91
2019-03-27T17:00:29.281Z,102245.25
2019-03-27T17:03:01.479Z,102247.88
2019-03-27T17:05:33.660Z,102246.80
2019-03-27T17:08:05.850Z,102242.21
2019-03-27T17:10:38.265Z,102242.19
2019-03-27T17:13:10.382Z,102246.18
2019-03-27T17:15:42.755Z,102243.50
2019-03-27T17:18:14.954Z,102240.03
2019-03-27T17:20:47.037Z,102240.25
2019-03-27T17:23:18.901Z,102243.89
2019-03-27T17:25:49.564Z,102248.05
2019-03-27T17:28:20.902Z,102242.04
2019-03-27T17:30:51.586Z,102240.05
2019-03-27T17:33:23.353Z,102252.03
2019-03-27T17:35:54.073Z,102252.36
2019-03-27T17:38:25.306Z,102261.08
2019-03-27T17:40:56.026Z,102256.13
2019-03-27T17:43:26.469Z,102258.66
2019-03-27T17:45:57.243Z,102264.55
2019-03-27T17:48:27.609Z,102287.67
2019-03-27T17:50:58.202Z,102275.05
2019-03-27T17:53:31.977Z,102278.98
2019-03-27T17:56:00.820Z,102276.81
2019-03-27T17:58:31.794Z,102279.70
2019-03-27T18:01:03.682Z,102279.55
2019-03-27T18:03:34.181Z,102292.49
2019-03-27T18:06:06.961Z,102293.42
2019-03-27T18:08:37.782Z,102295.05
2019-03-27T18:11:08.354Z,102290.61
2019-03-27T18:13:38.915Z,102290.64
2019-03-27T18:16:10.829Z,102304.37
2019-03-27T18:18:42.880Z,102300.95
2019-03-27T18:21:15.119Z,102306.84
2019-03-27T18:23:47.568Z,102303.06
2019-03-27T18:26:19.679Z,102304.92
2019-03-27T18:28:52.122Z,102308.57
2019-03-27T18:31:24.162Z,102303.38
2019-03-27T18:33:56.438Z,102305.63
2019-03-27T18:36:28.504Z,102301.36
2019-03-27T18:39:00.873Z,102308.80
2019-03-27T18:41:34.785Z,102303.45
2019-03-27T18:44:06.920Z,102302.45
2019-03-27T18:46:39.099Z,102305.53
2019-03-27T18:49:12.155Z,102298.90
2019-03-27T18:51:44.624Z,102295.83
2019-03-27T18:54:16.779Z,102298.99
2019-03-27T18:56:48.967Z,102306.48
2019-03-27T18:59:20.914Z,102301.75
2019-03-27T19:01:52.951Z,102300.75
2019-03-27T19:04:25.357Z,102301.49
2019-03-27T19:06:58.867Z,102300.69
2019-03-27T19:09:29.807Z,102300.14
2019-03-27T19:12:02.011Z,102305.30
2019-03-27T19:14:35.256Z,102298.90
2019-03-27T19:17:07.583Z,102296.59
2019-03-27T19:19:40.281Z,102290.95
2019-03-27T19:22:12.578Z,102295.44
2019-03-27T19:24:44.595Z,102291.34
2019-03-27T19:27:16.711Z,102286.98
2019-03-27T19:29:49.007Z,102288.36
2019-03-27T19:32:21.161Z,102292.56
2019-03-27T19:34:54.421Z,102297.36
2019-03-27T19:37:26.333Z,102291.92
2019-03-27T19:39:56.891Z,102294.09
2019-03-27T19:42:27.471Z,102297.09
2019-03-27T19:44:58.103Z,102301.17
2019-03-27T19:47:28.785Z,102292.33
2019-03-27T19:49:59.104Z,102299.11
2019-03-27T19:52:29.619Z,102302.02
2019-03-27T19:55:00.635Z,102294.50
2019-03-27T19:57:31.414Z,102294.63
2019-03-27T20:00:01.889Z,102296.01
2019-03-27T20:02:37.360Z,102300.33
2019-03-27T20:05:08.479Z,102295.14
2019-03-27T20:07:39.061Z,102302.28
2019-03-27T20:10:11.049Z,102307.92
2019-03-27T20:12:42.802Z,102302.25
2019-03-27T20:15:13.735Z,102305.70
2019-03-27T20:17:44.689Z,102298.56
2019-03-27T20:20:15.521Z,102302.30
2019-03-27T20:22:46.178Z,102299.39
2019-03-27T20:25:16.869Z,102297.70
2019-03-27T20:27:50.968Z,102300.98
2019-03-27T20:30:21.246Z,102302.33
2019-03-27T20:32:52.065Z,102298.40
2019-03-27T20:35:23.034Z,102302.61
2019-03-27T20:37:53.867Z,102304.95
2019-03-27T20:40:27.511Z,102299.61
2019-03-27T20:42:57.445Z,102300.37
2019-03-27T20:45:28.277Z,102306.86
2019-03-27T20:47:58.894Z,102300.75
2019-03-27T20:50:29.533Z,102299.44
2019-03-27T20:53:00.380Z,102299.20
2019-03-27T20:55:31.232Z,102297.50
2019-03-27T20:58:02.155Z,102308.97
2019-03-27T21:00:33.377Z,102301.49
2019-03-27T21:03:04.118Z,102291.48
2019-03-27T21:05:35.173Z,102295.69
2019-03-27T21:08:06.168Z,102286.66
2019-03-27T21:10:36.848Z,102291.00
2019-03-27T21:13:07.795Z,102285.55
2019-03-27T21:15:39.286Z,102285.72
2019-03-27T21:18:09.817Z,102286.89
2019-03-27T21:20:40.508Z,102288.94
2019-03-27T21:23:11.042Z,102288.76
2019-03-27T21:25:43.869Z,102286.14
2019-03-27T21:28:14.462Z,102282.13
2019-03-27T21:30:45.201Z,102284.27
2019-03-27T21:33:15.543Z,102278.58
2019-03-27T21:35:46.100Z,102283.89
2019-03-27T21:38:16.716Z,102280.16
2019-03-27T21:40:48.734Z,102278.09
2019-03-27T21:43:20.942Z,102279.70
2019-03-27T21:45:53.336Z,102293.41
2019-03-27T21:48:25.800Z,102298.51
2019-03-27T21:50:57.838Z,102298.13
2019-03-27T21:53:30.051Z,102300.31
2019-03-27T21:56:01.899Z,102309.38
2019-03-27T21:58:34.188Z,102303.30
2019-03-27T22:01:06.952Z,102309.23
2019-03-27T22:03:39.095Z,102307.80
2019-03-27T22:06:11.370Z,102301.73
2019-03-27T22:08:43.517Z,102308.44
2019-03-27T22:11:15.649Z,102313.31
2019-03-27T22:13:48.882Z,102302.63
2019-03-27T22:16:20.978Z,102302.26
2019-03-27T22:18:53.488Z,102309.75
2019-03-27T22:21:26.995Z,102308.30
2019-03-27T22:24:00.231Z,102303.53
2019-03-27T22:26:32.581Z,102306.61
2019-03-27T22:29:04.631Z,102308.73
2019-03-27T22:31:36.965Z,102303.53
2019-03-27T22:34:09.092Z,102307.31
2019-03-27T22:36:40.021Z,102302.75
2019-03-27T22:39:10.684Z,102297.92
2019-03-27T22:41:41.263Z,102298.48
2019-03-27T22:44:11.627Z,102303.02
2019-03-27T22:46:42.285Z,102302.30
2019-03-27T22:49:13.907Z,102305.45
2019-03-27T22:51:44.556Z,102310.28
2019-03-27T22:54:15.415Z,102316.87
2019-03-27T22:56:46.929Z,102323.80
2019-03-27T22:59:17.295Z,102320.61
2019-03-27T23:01:47.924Z,102324.47
2019-03-27T23:04:18.652Z,102322.11
2019-03-27T23:06:49.489Z,102321.70
2019-03-27T23:09:20.071Z,102325.22
2019-03-27T23:11:50.688Z,102322.92
2019-03-27T23:14:21.373Z,102315.18
2019-03-27T23:16:51.992Z,102312.85
2019-03-27T23:19:22.803Z,102316.86
2019-03-27T23:21:54.996Z,102319.94
2019-03-27T23:24:25.412Z,102312.19
2019-03-27T23:26:57.670Z,102311.36
2019-03-27T23:29:30.934Z,102312.67
2019-03-27T23:32:03.307Z,102317.91
2019-03-27T23:34:35.457Z,102317.80
2019-03-27T23:37:08.044Z,102312.89
2019-03-27T23:39:38.809Z,102300.64
2019-03-27T23:42:09.381Z,102304.50
2019-03-27T23:44:40.128Z,102298.44
2019-03-27T23:47:10.700Z,102302.18
2019-03-27T23:49:41.747Z,102297.09
2019-03-27T23:52:12.384Z,102311.43
2019-03-27T23:54:42.848Z,102306.94
2019-03-27T23:57:14.746Z,102304.39
2019-03-27T23:59:45.366Z,102305.02
